Time;durP1;ratioP1;P1;durP2;ratioP2;P2;SDS_P1;SDS_P2;PMS_P1;PMS_P2;Temp;Humidity;BMP_temperature;BMP_pressure;BME280_temperature;BME280_humidity;BME280_pressure;Samples;Min_cycle;Max_cycle;Signal;HPM_P1;HPM_P2
2021/05/13 00:01:57;;;;;;;5.90;4.70;;;22.30;49.10;;;;;;5099875;28;20079;-39
2021/05/13 00:04:24;;;;;;;5.55;4.38;;;22.30;49.10;;;;;;5111828;28;20666;-40
2021/05/13 00:06:51;;;;;;;5.95;4.25;;;22.40;49.20;;;;;;5111797;28;20048;-40
2021/05/13 00:09:19;;;;;;;6.47;4.80;;;22.30;49.10;;;;;;5111269;28;20047;-39
2021/05/13 00:11:49;;;;;;;6.90;4.97;;;22.30;49.10;;;;;;5111666;28;20047;-42
2021/05/13 00:14:17;;;;;;;5.68;4.43;;;22.40;49.20;;;;;;5109517;28;20047;-43
2021/05/13 00:16:44;;;;;;;5.90;4.25;;;22.30;49.10;;;;;;5112317;28;20125;-41
2021/05/13 00:19:14;;;;;;;5.43;4.28;;;22.40;49.20;;;;;;5111229;28;20119;-39
2021/05/13 00:21:43;;;;;;;5.63;4.55;;;22.30;49.10;;;;;;5110714;28;20055;-44
2021/05/13 00:24:13;;;;;;;6.32;4.82;;;22.30;49.10;;;;;;5100123;28;20039;-41
2021/05/13 00:26:42;;;;;;;5.43;4.40;;;22.30;49.10;;;;;;5109826;28;20063;-43
2021/05/13 00:29:12;;;;;;;5.97;4.53;;;22.30;49.10;;;;;;5110833;28;20054;-41
2021/05/13 00:31:40;;;;;;;5.53;4.25;;;22.30;49.10;;;;;;5111636;28;20125;-41
2021/05/13 00:34:08;;;;;;;5.35;4.43;;;22.30;49.10;;;;;;5110079;27;20051;-39
2021/05/13 00:36:37;;;;;;;5.70;4.65;;;22.30;49.10;;;;;;5100327;28;20108;-39
2021/05/13 00:39:08;;;;;;;6.32;4.68;;;22.30;49.10;;;;;;5111442;27;20130;-39
2021/05/13 00:41:36;;;;;;;4.78;3.47;;;22.30;49.10;;;;;;5111040;28;20055;-39
2021/05/13 00:44:05;;;;;;;5.78;4.50;;;22.30;49.10;;;;;;5111267;28;20063;-39
2021/05/13 00:46:33;;;;;;;5.55;4.03;;;22.30;49.10;;;;;;5099050;28;20093;-38
2021/05/13 00:49:13;;;;;;;5.13;3.95;;;22.30;49.10;;;;;;5111334;28;20039;-39
2021/05/13 00:51:41;;;;;;;5.70;4.53;;;22.30;49.10;;;;;;5110486;28;20071;-40
2021/05/13 00:54:09;;;;;;;6.03;4.70;;;22.30;49.10;;;;;;5110870;28;20383;-39
2021/05/13 00:56:36;;;;;;;5.15;4.13;;;22.30;49.10;;;;;;5100817;28;20392;-38
2021/05/13 00:59:09;;;;;;;5.82;4.25;;;22.30;49.10;;;;;;5110002;28;20473;-40
2021/05/13 01:01:59;;;;;;;5.57;4.30;;;22.30;49.10;;;;;;5110478;28;20113;-39
2021/05/13 01:04:25;;;;;;;6.20;4.75;;;22.30;49.10;;;;;;5111655;28;20109;-39
2021/05/13 01:06:52;;;;;;;5.45;4.43;;;22.30;49.10;;;;;;5110028;28;20040;-40
2021/05/13 01:09:24;;;;;;;6.20;4.30;;;22.30;49.10;;;;;;5110794;28;20051;-40
2021/05/13 01:11:55;;;;;;;5.32;4.38;;;22.30;49.10;;;;;;5110895;28;20108;-39
2021/05/13 01:14:31;;;;;;;5.90;4.32;;;22.30;49.10;;;;;;5109046;28;20048;-41
2021/05/13 01:19:31;;;;;;;6.20;4.05;;;22.30;49.10;;;;;;5109773;28;20522;-41
2021/05/13 01:21:59;;;;;;;5.78;4.15;;;22.30;49.10;;;;;;5110198;28;20043;-40
2021/05/13 01:24:26;;;;;;;5.63;4.20;;;22.30;49.10;;;;;;5110718;28;20047;-40
2021/05/13 01:26:54;;;;;;;6.53;4.60;;;22.30;49.10;;;;;;5109234;28;20055;-39
2021/05/13 01:29:27;;;;;;;6.47;4.50;;;22.30;49.10;;;;;;5110535;28;20047;-40
2021/05/13 01:31:55;;;;;;;5.57;3.97;;;22.30;49.10;;;;;;5110508;28;20124;-39
2021/05/13 01:34:23;;;;;;;4.40;3.72;;;22.30;49.10;;;;;;5099397;28;20058;-41
2021/05/13 01:36:51;;;;;;;5.32;4.20;;;22.30;49.10;;;;;;5111327;28;20047;-39
2021/05/13 01:39:19;;;;;;;4.95;3.95;;;22.30;49.10;;;;;;5109725;28;20039;-39
2021/05/13 01:41:47;;;;;;;3.97;3.58;;;22.30;49.10;;;;;;5110399;28;20044;-40
2021/05/13 01:44:14;;;;;;;5.53;4.07;;;22.30;49.10;;;;;;5111604;28;20059;-39
2021/05/13 01:46:41;;;;;;;5.32;3.97;;;22.30;49.10;;;;;;5113812;28;20039;-39
2021/05/13 01:49:21;;;;;;;6.05;4.28;;;22.30;49.10;;;;;;5115320;28;20047;-39
2021/05/13 01:51:49;;;;;;;5.00;4.07;;;22.30;49.20;;;;;;5113889;28;20079;-39
2021/05/13 01:54:19;;;;;;;6.30;4.57;;;22.30;49.10;;;;;;5113929;28;20081;-40
2021/05/13 01:56:47;;;;;;;4.28;3.58;;;22.30;49.10;;;;;;5114679;28;20450;-39
2021/05/13 01:59:16;;;;;;;5.72;4.13;;;22.30;49.20;;;;;;5112345;28;20052;-39
2021/05/13 02:01:43;;;;;;;4.65;3.90;;;22.30;49.20;;;;;;5114388;28;20044;-39
2021/05/13 02:04:10;;;;;;;5.30;4.03;;;22.30;49.10;;;;;;5114328;27;20043;-39
2021/05/13 02:06:38;;;;;;;4.95;4.05;;;22.30;49.10;;;;;;5113916;28;20096;-40
2021/05/13 02:09:05;;;;;;;4.30;3.60;;;22.30;49.20;;;;;;5114629;28;20094;-39
2021/05/13 02:11:32;;;;;;;4.97;3.58;;;22.30;49.10;;;;;;5113442;28;20089;-39
2021/05/13 02:13:59;;;;;;;4.50;3.55;;;22.30;49.10;;;;;;5113377;28;20563;-40
2021/05/13 02:16:26;;;;;;;4.97;3.85;;;22.30;49.10;;;;;;5113721;28;20040;-39
2021/05/13 02:18:53;;;;;;;4.40;3.63;;;22.30;49.10;;;;;;5114240;27;20047;-39
2021/05/13 02:21:20;;;;;;;4.43;3.47;;;22.30;49.10;;;;;;5113998;28;20449;-39
2021/05/13 02:23:48;;;;;;;4.50;3.65;;;22.30;49.10;;;;;;5112294;27;20071;-40
2021/05/13 02:26:20;;;;;;;4.28;3.70;;;22.30;49.10;;;;;;5113615;27;20578;-39
2021/05/13 02:28:48;;;;;;;4.70;3.80;;;22.30;49.20;;;;;;5113934;28;20444;-39
2021/05/13 02:31:15;;;;;;;5.15;3.80;;;22.30;49.10;;;;;;5112380;27;20100;-39
2021/05/13 02:33:42;;;;;;;4.68;3.63;;;22.30;49.10;;;;;;5114074;28;20460;-40
2021/05/13 02:36:10;;;;;;;4.88;3.25;;;22.30;49.10;;;;;;5112412;28;20051;-40
2021/05/13 02:38:37;;;;;;;4.82;3.50;;;22.30;49.10;;;;;;5114061;28;20047;-43
2021/05/13 02:41:04;;;;;;;3.85;3.25;;;22.30;49.20;;;;;;5113064;28;20052;-39
2021/05/13 02:43:32;;;;;;;5.50;3.97;;;22.30;49.10;;;;;;5112726;28;20055;-41
2021/05/13 02:45:59;;;;;;;5.03;3.97;;;22.30;49.10;;;;;;5113767;28;20096;-40
2021/05/13 02:48:26;;;;;;;5.32;3.80;;;22.30;49.20;;;;;;5112575;28;20043;-42
2021/05/13 02:50:53;;;;;;;4.95;3.97;;;22.30;49.20;;;;;;5113055;27;20079;-40
2021/05/13 02:53:20;;;;;;;4.65;3.58;;;22.30;49.30;;;;;;5113594;28;20085;-39
2021/05/13 02:55:47;;;;;;;4.90;3.80;;;22.30;49.20;;;;;;5112070;27;20051;-40
2021/05/13 02:58:14;;;;;;;5.32;3.53;;;22.30;49.20;;;;;;5113404;28;20070;-41
2021/05/13 03:03:38;;;;;;;5.13;3.90;;;22.30;49.20;;;;;;5076713;28;20101;-40
2021/05/13 03:06:05;;;;;;;5.32;3.85;;;22.30;49.20;;;;;;5080500;28;20051;-39
2021/05/13 03:08:32;;;;;;;4.72;3.20;;;22.30;49.20;;;;;;5079735;28;20036;-40
2021/05/13 03:10:59;;;;;;;3.15;2.63;;;22.30;49.20;;;;;;5080109;28;20040;-39
2021/05/13 03:13:28;;;;;;;4.13;3.47;;;22.30;49.20;;;;;;5079220;28;20044;-41
2021/05/13 03:15:55;;;;;;;4.30;3.80;;;22.30;49.20;;;;;;5076555;28;20139;-39
2021/05/13 03:18:24;;;;;;;4.45;3.53;;;22.30;49.20;;;;;;5080702;28;20086;-41
2021/05/13 03:21:09;;;;;;;4.88;3.35;;;22.30;49.20;;;;;;5078444;28;20165;-39
2021/05/13 03:23:46;;;;;;;4.43;3.20;;;22.30;49.20;;;;;;5064519;28;20128;-40
2021/05/13 03:26:13;;;;;;;3.95;3.20;;;22.30;49.20;;;;;;5079856;28;20045;-39
2021/05/13 03:28:40;;;;;;;5.18;3.67;;;22.30;49.20;;;;;;5080458;28;20074;-40
2021/05/13 03:31:07;;;;;;;3.90;3.15;;;22.30;49.20;;;;;;5079243;28;20080;-40
2021/05/13 03:33:34;;;;;;;3.78;3.20;;;22.30;49.20;;;;;;5078982;28;20138;-40
2021/05/13 03:36:01;;;;;;;4.10;3.35;;;22.30;49.20;;;;;;5077738;28;20055;-39
2021/05/13 03:38:29;;;;;;;4.15;3.40;;;22.30;49.20;;;;;;5080534;28;20060;-40
2021/05/13 03:40:56;;;;;;;4.25;3.20;;;22.30;49.20;;;;;;5105473;28;20518;-41
2021/05/13 03:43:24;;;;;;;4.47;3.30;;;22.30;49.20;;;;;;5112103;28;20473;-40
2021/05/13 03:45:51;;;;;;;4.25;3.42;;;22.30;49.20;;;;;;5112545;28;20407;-41
2021/05/13 03:48:18;;;;;;;4.40;3.20;;;22.30;49.20;;;;;;5111117;28;20491;-40
2021/05/13 03:50:45;;;;;;;3.85;3.15;;;22.30;49.20;;;;;;5111955;27;20047;-40
2021/05/13 03:53:12;;;;;;;3.75;3.33;;;22.30;49.20;;;;;;5111929;28;20435;-41
2021/05/13 03:55:40;;;;;;;4.53;3.33;;;22.30;49.20;;;;;;5111182;28;20062;-41
2021/05/13 03:58:09;;;;;;;3.85;3.08;;;22.30;49.20;;;;;;5113097;28;20775;-41
2021/05/13 04:03:21;;;;;;;4.07;3.55;;;22.30;49.80;;;;;;5112016;28;20619;-41
2021/05/13 04:05:48;;;;;;;4.10;3.30;;;22.30;49.20;;;;;;5111576;28;20051;-41
2021/05/13 04:08:16;;;;;;;3.90;3.47;;;22.30;49.20;;;;;;5109270;28;20081;-41
2021/05/13 04:10:43;;;;;;;3.88;3.00;;;22.30;49.20;;;;;;5112030;28;20070;-41
2021/05/13 04:13:13;;;;;;;4.40;3.33;;;22.30;49.20;;;;;;5110034;28;20047;-40
2021/05/13 04:15:55;;;;;;;3.90;3.10;;;22.30;49.20;;;;;;5110769;28;20059;-44
2021/05/13 04:18:22;;;;;;;3.83;3.00;;;22.30;49.20;;;;;;5112397;28;20496;-41
2021/05/13 04:20:49;;;;;;;3.92;3.30;;;22.30;49.20;;;;;;5110469;28;20077;-40
2021/05/13 04:23:16;;;;;;;3.78;3.20;;;22.30;49.20;;;;;;5111668;28;20047;-40
2021/05/13 04:25:43;;;;;;;3.55;2.95;;;22.30;49.20;;;;;;5111490;28;20461;-44
2021/05/13 04:28:11;;;;;;;4.00;2.85;;;22.30;49.20;;;;;;5110729;28;20051;-43
2021/05/13 04:30:38;;;;;;;4.38;3.35;;;22.30;49.20;;;;;;5111745;27;20556;-40
2021/05/13 04:33:05;;;;;;;3.22;2.83;;;22.30;49.20;;;;;;5110802;27;20112;-39
2021/05/13 04:35:32;;;;;;;3.38;2.72;;;22.30;49.20;;;;;;5111765;28;20478;-39
2021/05/13 04:37:59;;;;;;;3.35;2.88;;;22.30;49.20;;;;;;5111486;28;20602;-41
2021/05/13 04:40:26;;;;;;;4.10;3.10;;;22.30;49.20;;;;;;5110435;28;20067;-40
2021/05/13 04:42:54;;;;;;;4.45;3.17;;;22.30;49.20;;;;;;5101059;28;20055;-39
2021/05/13 04:45:21;;;;;;;4.07;2.83;;;22.30;49.20;;;;;;5110422;28;20114;-40
2021/05/13 04:50:24;;;;;;;3.10;2.80;;;22.30;49.20;;;;;;5111106;28;20043;-40
2021/05/13 04:52:51;;;;;;;4.35;3.42;;;22.30;49.20;;;;;;5097705;28;20051;-40
2021/05/13 04:55:18;;;;;;;3.78;3.00;;;22.30;49.20;;;;;;5112058;27;20103;-40
2021/05/13 04:57:46;;;;;;;3.70;3.00;;;22.30;49.20;;;;;;5110329;28;20047;-40
2021/05/13 05:00:13;;;;;;;4.50;3.33;;;22.30;49.20;;;;;;5111185;27;20452;-42
2021/05/13 05:02:40;;;;;;;3.65;2.80;;;22.30;49.20;;;;;;5111921;28;20051;-39
2021/05/13 05:05:08;;;;;;;3.25;2.60;;;22.30;49.20;;;;;;5098494;28;20068;-41
2021/05/13 05:07:35;;;;;;;3.85;3.10;;;22.30;49.30;;;;;;5100494;28;20100;-40
2021/05/13 05:10:04;;;;;;;3.08;2.78;;;22.30;49.20;;;;;;5111010;28;20043;-40
2021/05/13 05:12:31;;;;;;;3.30;2.92;;;22.30;49.20;;;;;;5109141;28;20490;-40
2021/05/13 05:14:58;;;;;;;3.78;2.80;;;22.30;49.30;;;;;;5110401;28;20560;-39
2021/05/13 05:17:25;;;;;;;3.47;2.75;;;22.30;49.30;;;;;;5109805;28;20047;-40
2021/05/13 05:19:52;;;;;;;4.13;3.00;;;22.30;49.20;;;;;;5110377;28;20054;-39
2021/05/13 05:22:19;;;;;;;3.55;3.00;;;22.30;49.20;;;;;;5110327;28;20105;-40
2021/05/13 05:24:46;;;;;;;3.28;2.58;;;22.30;49.20;;;;;;5109420;28;20071;-39
2021/05/13 05:27:14;;;;;;;4.03;3.10;;;22.30;49.20;;;;;;5111060;28;20082;-40
2021/05/13 05:29:41;;;;;;;3.33;2.50;;;22.30;49.20;;;;;;5097795;28;20130;-40
2021/05/13 05:32:08;;;;;;;3.40;2.70;;;22.30;49.20;;;;;;5110032;28;20039;-40
2021/05/13 05:34:35;;;;;;;4.40;3.20;;;22.30;49.20;;;;;;5110512;28;20423;-41
2021/05/13 05:37:02;;;;;;;3.50;2.85;;;22.30;49.20;;;;;;5110337;28;20047;-40
2021/05/13 05:39:29;;;;;;;3.55;2.70;;;22.30;49.20;;;;;;5111387;28;20105;-40
2021/05/13 05:41:57;;;;;;;3.05;2.33;;;22.30;49.20;;;;;;5109507;28;20510;-40
2021/05/13 05:44:24;;;;;;;2.58;2.20;;;22.30;49.20;;;;;;5100021;28;20067;-40
2021/05/13 05:46:52;;;;;;;3.05;2.55;;;22.30;49.20;;;;;;5110673;28;20055;-41
2021/05/13 05:49:20;;;;;;;3.97;2.72;;;22.30;49.20;;;;;;5109512;28;20052;-39
2021/05/13 05:51:47;;;;;;;2.53;2.22;;;22.30;49.20;;;;;;5110408;28;20384;-40
2021/05/13 05:54:14;;;;;;;3.92;2.95;;;22.30;49.20;;;;;;5109606;28;20044;-41
2021/05/13 05:56:41;;;;;;;3.58;2.97;;;22.30;49.20;;;;;;5109441;28;20051;-41
2021/05/13 05:59:08;;;;;;;3.22;2.50;;;22.30;49.20;;;;;;5111186;28;20075;-40
2021/05/13 06:01:37;;;;;;;3.63;3.08;;;22.30;49.20;;;;;;5108785;28;20480;-41
2021/05/13 06:04:08;;;;;;;3.35;2.47;;;22.30;49.20;;;;;;5109830;28;20058;-40
2021/05/13 06:06:37;;;;;;;2.83;2.40;;;22.30;49.20;;;;;;5110059;28;20047;-40
2021/05/13 06:09:06;;;;;;;3.38;2.60;;;22.30;49.30;;;;;;5109355;28;20051;-40
2021/05/13 06:11:33;;;;;;;3.50;2.67;;;22.30;49.30;;;;;;5110116;28;20043;-40
2021/05/13 06:14:00;;;;;;;3.40;2.60;;;22.30;49.20;;;;;;5108215;28;20044;-40
2021/05/13 06:16:28;;;;;;;3.55;2.65;;;22.30;49.30;;;;;;5109849;28;20047;-41
2021/05/13 06:18:58;;;;;;;3.13;2.63;;;22.30;49.30;;;;;;5110320;28;20058;-40
2021/05/13 06:21:26;;;;;;;3.10;2.42;;;22.30;49.20;;;;;;5108486;28;20043;-42
2021/05/13 06:23:56;;;;;;;3.03;2.58;;;22.30;49.80;;;;;;5109840;28;20040;-39
2021/05/13 06:26:30;;;;;;;2.92;2.53;;;22.30;49.20;;;;;;5109595;28;20044;-41
2021/05/13 06:29:06;;;;;;;3.13;2.60;;;22.30;49.20;;;;;;5109309;28;20040;-41
2021/05/13 06:31:34;;;;;;;3.45;2.67;;;22.30;49.20;;;;;;5112720;28;20101;-40
2021/05/13 06:34:03;;;;;;;2.75;2.40;;;22.30;49.30;;;;;;5113199;28;20039;-40
2021/05/13 06:36:33;;;;;;;2.97;2.42;;;22.30;49.20;;;;;;5113174;28;20054;-43
2021/05/13 06:39:00;;;;;;;2.78;2.22;;;22.30;49.20;;;;;;5113850;28;20056;-40
2021/05/13 06:41:27;;;;;;;3.58;2.78;;;22.30;49.20;;;;;;5112540;28;20092;-40
2021/05/13 06:43:54;;;;;;;3.40;2.55;;;22.30;49.20;;;;;;5104406;28;20048;-41
2021/05/13 06:46:22;;;;;;;2.97;2.38;;;22.30;49.20;;;;;;5112779;28;20047;-40
2021/05/13 06:48:51;;;;;;;3.22;2.08;;;22.30;49.20;;;;;;5111826;28;20083;-39
2021/05/13 06:51:19;;;;;;;3.38;2.60;;;22.30;49.20;;;;;;5113442;28;20483;-39
2021/05/13 06:53:47;;;;;;;2.72;2.38;;;22.30;49.20;;;;;;5112124;27;20051;-40
2021/05/13 06:56:15;;;;;;;3.22;2.72;;;22.30;49.20;;;;;;5114508;27;20080;-40
2021/05/13 06:58:43;;;;;;;3.63;2.58;;;22.30;49.20;;;;;;5112648;28;20054;-40
2021/05/13 07:01:10;;;;;;;3.17;2.67;;;22.30;49.30;;;;;;5112623;27;20056;-40
2021/05/13 07:03:38;;;;;;;3.00;2.60;;;22.30;49.20;;;;;;5113978;28;20134;-40
2021/05/13 07:06:05;;;;;;;3.83;2.90;;;22.30;49.20;;;;;;5111508;28;20051;-39
2021/05/13 07:08:32;;;;;;;2.88;2.20;;;22.30;49.30;;;;;;5113270;28;20056;-41
2021/05/13 07:11:00;;;;;;;2.65;2.33;;;22.30;49.20;;;;;;5112755;28;20103;-42
2021/05/13 07:13:28;;;;;;;3.30;2.50;;;22.30;49.20;;;;;;5111741;28;20040;-41
2021/05/13 07:15:55;;;;;;;2.90;2.40;;;22.30;49.20;;;;;;5112987;28;20422;-39
2021/05/13 07:18:22;;;;;;;2.90;2.20;;;22.30;49.20;;;;;;5111043;28;20061;-39
2021/05/13 07:20:49;;;;;;;2.67;2.20;;;22.30;49.30;;;;;;5113231;28;20474;-39
2021/05/13 07:23:17;;;;;;;2.80;2.30;;;22.30;49.20;;;;;;5112803;28;20419;-39
2021/05/13 07:25:45;;;;;;;2.65;2.22;;;22.30;49.20;;;;;;5112159;28;20051;-38
2021/05/13 07:28:13;;;;;;;2.78;2.30;;;22.30;49.20;;;;;;5112914;28;20048;-39
2021/05/13 07:30:42;;;;;;;3.28;2.45;;;22.30;49.20;;;;;;5111556;28;20092;-39
2021/05/13 07:33:09;;;;;;;2.67;2.20;;;22.30;49.20;;;;;;5111994;28;20050;-40
2021/05/13 07:35:37;;;;;;;2.42;1.70;;;22.30;49.20;;;;;;5112530;28;20048;-40
2021/05/13 07:38:04;;;;;;;3.22;2.50;;;22.30;49.20;;;;;;5110613;28;20047;-39
2021/05/13 07:40:33;;;;;;;2.92;2.35;;;22.30;49.20;;;;;;5112902;28;20048;-38
2021/05/13 07:43:00;;;;;;;2.90;2.30;;;22.30;49.20;;;;;;5111948;28;20511;-38
2021/05/13 07:45:28;;;;;;;2.58;2.25;;;22.30;49.20;;;;;;5112298;27;20418;-39
2021/05/13 07:47:55;;;;;;;3.30;2.38;;;22.30;49.20;;;;;;5112702;28;20048;-41
2021/05/13 07:50:24;;;;;;;2.78;2.38;;;22.30;49.20;;;;;;5110574;28;20035;-40
2021/05/13 07:52:52;;;;;;;3.55;2.45;;;22.30;49.20;;;;;;5112098;27;20444;-40
2021/05/13 07:55:20;;;;;;;2.92;2.50;;;22.30;49.30;;;;;;5112044;28;20046;-41
2021/05/13 07:57:47;;;;;;;2.70;2.40;;;22.30;49.20;;;;;;5111244;28;20051;-40
2021/05/13 08:00:15;;;;;;;3.38;2.30;;;22.30;49.20;;;;;;5112655;28;20569;-40
2021/05/13 08:02:42;;;;;;;2.17;1.80;;;22.30;49.20;;;;;;5110832;27;20078;-40
2021/05/13 08:05:10;;;;;;;2.33;2.13;;;22.30;49.20;;;;;;5112019;28;20040;-43
2021/05/13 08:07:38;;;;;;;2.60;2.10;;;22.30;49.20;;;;;;5111513;28;20071;-41
2021/05/13 08:10:06;;;;;;;2.67;2.10;;;22.30;49.20;;;;;;5110998;28;20973;-42
2021/05/13 08:12:34;;;;;;;3.00;2.38;;;22.30;49.20;;;;;;5101998;28;20098;-40
2021/05/13 08:15:01;;;;;;;3.08;1.90;;;22.30;49.20;;;;;;5110120;28;20055;-40
2021/05/13 08:17:28;;;;;;;2.15;1.80;;;22.30;49.20;;;;;;5112648;27;20050;-39
2021/05/13 08:19:56;;;;;;;2.60;2.03;;;22.30;49.20;;;;;;5111535;28;20047;-40
2021/05/13 08:22:23;;;;;;;3.05;2.50;;;22.30;49.20;;;;;;5111527;27;20096;-39
2021/05/13 08:24:50;;;;;;;3.78;2.35;;;22.30;49.20;;;;;;5111824;28;20048;-40
2021/05/13 08:27:17;;;;;;;2.50;2.15;;;22.30;49.20;;;;;;5111115;28;20039;-39
2021/05/13 08:29:44;;;;;;;3.00;2.20;;;22.30;49.20;;;;;;5111907;27;20104;-41
2021/05/13 08:32:11;;;;;;;2.90;2.17;;;22.30;49.20;;;;;;5111783;28;20084;-39
2021/05/13 08:34:38;;;;;;;2.70;2.20;;;22.30;49.20;;;;;;5109307;28;20134;-40
2021/05/13 08:37:05;;;;;;;2.30;1.70;;;22.30;49.20;;;;;;5100724;27;20047;-40
2021/05/13 08:39:32;;;;;;;2.55;2.10;;;22.30;49.20;;;;;;5111219;28;20043;-42
2021/05/13 08:42:02;;;;;;;2.72;2.00;;;22.30;49.20;;;;;;5100925;28;20039;-39
2021/05/13 08:44:30;;;;;;;2.40;1.85;;;22.30;49.20;;;;;;5111686;28;20052;-39
2021/05/13 08:46:58;;;;;;;2.75;2.15;;;22.30;49.20;;;;;;5099037;28;20054;-41
2021/05/13 08:49:27;;;;;;;3.00;2.05;;;22.30;49.20;;;;;;5111446;28;20044;-41
2021/05/13 08:51:54;;;;;;;2.28;1.77;;;22.30;49.20;;;;;;5110530;28;20120;-40
2021/05/13 08:54:23;;;;;;;2.38;1.92;;;22.30;49.20;;;;;;5108096;28;20092;-40
2021/05/13 08:56:52;;;;;;;2.17;1.98;;;22.30;49.20;;;;;;5110817;28;20048;-45
2021/05/13 08:59:20;;;;;;;2.40;1.80;;;22.30;49.20;;;;;;5109784;28;20529;-41
2021/05/13 09:02:00;;;;;;;2.15;1.77;;;22.30;49.20;;;;;;5110910;28;20415;-40
2021/05/13 09:04:48;;;;;;;2.58;1.80;;;22.30;49.20;;;;;;5111447;28;20051;-41
2021/05/13 09:07:18;;;;;;;2.65;2.00;;;22.30;49.20;;;;;;5109651;28;20100;-43
2021/05/13 09:09:54;;;;;;;2.50;2.00;;;22.30;49.30;;;;;;5110629;28;20051;-41
2021/05/13 09:12:26;;;;;;;2.70;2.17;;;22.30;49.20;;;;;;5111378;28;20043;-41
2021/05/13 09:15:10;;;;;;;2.30;2.10;;;22.30;49.20;;;;;;5108269;28;20108;-41
2021/05/13 09:17:39;;;;;;;2.47;2.03;;;22.30;49.20;;;;;;5110732;28;20082;-41
2021/05/13 09:20:30;;;;;;;2.38;1.92;;;22.30;49.20;;;;;;5110557;28;20087;-43
2021/05/13 09:23:27;;;;;;;2.58;1.90;;;22.30;49.30;;;;;;5109095;28;20457;-40
2021/05/13 09:26:07;;;;;;;2.30;1.70;;;22.30;49.30;;;;;;5109753;28;20073;-40
2021/05/13 09:28:35;;;;;;;2.97;2.38;;;22.30;49.30;;;;;;5111587;28;20469;-41
2021/05/13 09:31:03;;;;;;;2.60;1.95;;;22.30;49.30;;;;;;5113527;28;20051;-40
2021/05/13 09:33:39;;;;;;;2.03;1.73;;;22.30;49.30;;;;;;5125696;28;20520;-40
2021/05/13 09:36:20;;;;;;;2.72;2.00;;;22.30;49.30;;;;;;5118014;28;20438;-40
2021/05/13 09:38:48;;;;;;;2.00;1.80;;;22.30;49.30;;;;;;5113938;28;20055;-40
2021/05/13 09:41:27;;;;;;;2.75;1.98;;;22.30;49.90;;;;;;5113954;28;20044;-40
2021/05/13 09:43:55;;;;;;;2.30;1.85;;;22.30;49.30;;;;;;5124026;28;20100;-40
2021/05/13 09:46:32;;;;;;;2.20;1.65;;;22.30;49.30;;;;;;5117878;28;20047;-40
2021/05/13 09:49:00;;;;;;;1.75;1.60;;;22.30;49.30;;;;;;5113484;28;20047;-40
2021/05/13 09:51:28;;;;;;;2.30;1.92;;;22.30;49.30;;;;;;5125705;28;20096;-40
2021/05/13 09:54:08;;;;;;;2.35;1.88;;;22.30;49.30;;;;;;5129300;28;20107;-42
2021/05/13 09:56:40;;;;;;;2.50;2.00;;;22.30;49.30;;;;;;5118307;28;20097;-40
2021/05/13 09:59:35;;;;;;;1.98;1.70;;;22.30;49.30;;;;;;5096055;28;20055;-40
2021/05/13 10:02:06;;;;;;;2.28;1.80;;;22.30;49.30;;;;;;5126963;28;20100;-40
2021/05/13 10:04:33;;;;;;;2.20;1.83;;;22.30;49.30;;;;;;5116093;28;20083;-41
2021/05/13 10:07:00;;;;;;;2.10;1.80;;;22.30;49.90;;;;;;5117591;27;20069;-40
2021/05/13 10:09:28;;;;;;;2.53;2.00;;;22.30;49.30;;;;;;5117388;27;20100;-40
2021/05/13 10:11:57;;;;;;;2.60;1.88;;;22.30;49.30;;;;;;5117448;27;20051;-40
2021/05/13 10:14:26;;;;;;;2.15;1.95;;;22.30;49.30;;;;;;5131681;27;20047;-40
2021/05/13 10:17:00;;;;;;;2.70;2.05;;;22.30;49.30;;;;;;5109558;27;20095;-40
2021/05/13 10:19:32;;;;;;;1.98;1.77;;;22.30;49.30;;;;;;5123792;27;20055;-39
2021/05/13 10:22:01;;;;;;;2.30;1.65;;;22.30;49.30;;;;;;5131707;27;20055;-40
2021/05/13 10:24:29;;;;;;;2.67;1.88;;;22.30;49.30;;;;;;5115614;28;20075;-40
2021/05/13 10:26:56;;;;;;;2.40;1.88;;;22.30;49.30;;;;;;5115306;28;20073;-39
2021/05/13 10:29:27;;;;;;;2.17;1.65;;;22.30;49.30;;;;;;5116802;27;20123;-41
2021/05/13 10:34:44;;;;;;;2.10;1.38;;;22.30;49.30;;;;;;5112982;27;20425;-43
2021/05/13 10:37:13;;;;;;;1.90;1.40;;;22.30;49.30;;;;;;5114621;28;20113;-40
2021/05/13 10:40:11;;;;;;;2.22;1.75;;;22.30;49.30;;;;;;5114418;28;20054;-40
2021/05/13 10:42:40;;;;;;;2.22;1.70;;;22.30;49.30;;;;;;5113340;27;20096;-39
2021/05/13 10:45:26;;;;;;;2.42;1.90;;;22.30;49.30;;;;;;5112651;27;20101;-40
2021/05/13 10:48:22;;;;;;;1.90;1.48;;;22.30;49.30;;;;;;5114081;28;20448;-40
2021/05/13 10:50:58;;;;;;;;;;;22.30;49.30;;;;;;5113563;28;20071;-42
2021/05/13 10:53:45;;;;;;;2.45;1.92;;;22.30;49.30;;;;;;5101579;28;19938;-39
2021/05/13 10:56:28;;;;;;;2.53;2.05;;;22.30;49.30;;;;;;5113566;28;20040;-40
2021/05/13 10:59:03;;;;;;;2.20;1.80;;;22.30;49.30;;;;;;5102350;28;20660;-41
2021/05/13 11:01:51;;;;;;;1.63;1.40;;;22.30;49.30;;;;;;5112418;27;20498;-41
2021/05/13 11:04:25;;;;;;;2.00;1.77;;;22.30;49.30;;;;;;5103275;28;20043;-40
2021/05/13 11:06:59;;;;;;;1.90;1.60;;;22.30;49.30;;;;;;5112636;28;20043;-40
2021/05/13 11:09:42;;;;;;;;;;;22.30;49.30;;;;;;5113200;27;20044;-40
2021/05/13 11:12:13;;;;;;;2.28;1.50;;;22.30;49.30;;;;;;5113441;28;19969;-40
2021/05/13 11:17:50;;;;;;;2.45;1.80;;;22.30;49.30;;;;;;5111106;28;20105;-40
2021/05/13 11:20:25;;;;;;;2.20;1.65;;;22.30;49.30;;;;;;5113378;28;20491;-41
2021/05/13 11:23:11;;;;;;;1.75;1.45;;;22.30;49.30;;;;;;5099482;28;20047;-40
2021/05/13 11:25:49;;;;;;;1.90;1.70;;;22.30;49.30;;;;;;5111466;28;20097;-41
2021/05/13 11:28:21;;;;;;;1.92;1.60;;;22.30;49.40;;;;;;5112815;28;20112;-41
2021/05/13 11:31:07;;;;;;;1.60;1.45;;;22.30;49.40;;;;;;5112229;28;20054;-40
2021/05/13 11:33:51;;;;;;;2.10;1.80;;;22.30;49.30;;;;;;5111985;28;20097;-40
2021/05/13 11:36:36;;;;;;;1.70;1.40;;;22.30;49.30;;;;;;5113153;28;20411;-40
2021/05/13 11:39:17;;;;;;;2.85;1.90;;;22.30;49.30;;;;;;5112507;27;20100;-40
2021/05/13 11:41:46;;;;;;;1.83;1.50;;;22.30;50.00;;;;;;5112374;28;20445;-40
2021/05/13 11:44:13;;;;;;;1.50;1.40;;;22.30;49.40;;;;;;5113455;28;20097;-40
2021/05/13 11:46:44;;;;;;;1.70;1.48;;;22.30;49.30;;;;;;5111026;28;20050;-41
2021/05/13 11:49:11;;;;;;;1.90;1.58;;;22.30;49.30;;;;;;5112357;28;20118;-40
2021/05/13 11:51:38;;;;;;;2.40;1.80;;;22.30;49.30;;;;;;5111869;28;20048;-40
2021/05/13 11:54:08;;;;;;;1.70;1.50;;;22.30;49.30;;;;;;5110540;28;20043;-40
2021/05/13 11:56:37;;;;;;;2.00;1.55;;;22.30;49.30;;;;;;5112053;28;20104;-42
2021/05/13 11:59:11;;;;;;;2.05;1.40;;;22.30;49.30;;;;;;5097666;28;20044;-40
2021/05/13 12:01:39;;;;;;;;;;;22.30;49.30;;;;;;5112151;28;20047;-40
2021/05/13 12:04:15;;;;;;;2.15;1.55;;;22.30;49.30;;;;;;5112478;28;20282;-40
2021/05/13 12:06:44;;;;;;;2.03;1.60;;;22.30;49.30;;;;;;5109951;28;20097;-40
2021/05/13 12:09:12;;;;;;;1.77;1.55;;;22.30;50.00;;;;;;5111857;28;20130;-40
2021/05/13 12:11:42;;;;;;;2.40;1.40;;;22.30;49.30;;;;;;5111372;28;20383;-40
2021/05/13 12:14:11;;;;;;;1.70;1.38;;;22.30;49.30;;;;;;5109659;28;20090;-44
2021/05/13 12:16:42;;;;;;;1.98;1.67;;;22.30;49.50;;;;;;5112021;28;20059;-40
2021/05/13 12:19:14;;;;;;;1.98;1.65;;;22.30;49.30;;;;;;5110543;28;20078;-43
2021/05/13 12:21:42;;;;;;;1.85;1.50;;;22.30;49.30;;;;;;5111820;27;20044;-41
2021/05/13 12:24:10;;;;;;;1.67;1.27;;;22.30;49.30;;;;;;5111890;28;20047;-40
2021/05/13 12:26:41;;;;;;;2.05;1.50;;;22.30;49.30;;;;;;5110909;28;20047;-42
2021/05/13 12:29:14;;;;;;;1.92;1.70;;;22.30;49.30;;;;;;5111110;28;20635;-41
2021/05/13 12:31:45;;;;;;;2.58;1.85;;;22.30;49.30;;;;;;5111400;28;20065;-43
2021/05/13 12:34:38;;;;;;;1.90;1.40;;;22.30;49.30;;;;;;5110130;28;20057;-40
2021/05/13 12:37:06;;;;;;;2.30;1.63;;;22.30;49.30;;;;;;5112007;28;20470;-40
2021/05/13 12:39:37;;;;;;;1.92;1.55;;;22.30;49.30;;;;;;5110946;28;20043;-40
2021/05/13 12:42:22;;;;;;;1.98;1.58;;;22.30;49.40;;;;;;5110418;28;20093;-41
2021/05/13 12:44:50;;;;;;;1.48;1.38;;;22.30;49.30;;;;;;5111958;28;20043;-40
2021/05/13 12:47:24;;;;;;;1.63;1.42;;;22.30;49.40;;;;;;5110098;28;20534;-41
2021/05/13 12:50:01;;;;;;;;;;;22.30;49.40;;;;;;5111024;28;20043;-39
2021/05/13 12:52:28;;;;;;;1.92;1.50;;;22.40;49.50;;;;;;5111345;28;19924;-41
2021/05/13 12:55:18;;;;;;;2.00;1.60;;;22.30;49.40;;;;;;5110409;28;20047;-42
2021/05/13 12:57:46;;;;;;;1.80;1.50;;;22.30;49.40;;;;;;5111531;28;20043;-40
2021/05/13 13:00:15;;;;;;;2.33;1.67;;;22.30;49.40;;;;;;5111088;28;20048;-40
2021/05/13 13:02:42;;;;;;;1.55;1.38;;;22.30;49.40;;;;;;5109928;28;20067;-39
2021/05/13 13:05:17;;;;;;;1.90;1.50;;;22.30;49.40;;;;;;5100917;28;20043;-41
2021/05/13 13:07:47;;;;;;;1.83;1.50;;;22.30;49.40;;;;;;5110386;28;20046;-40
2021/05/13 13:10:33;;;;;;;1.67;1.42;;;22.30;49.40;;;;;;5110644;28;20044;-41
2021/05/13 13:13:06;;;;;;;1.73;1.50;;;22.30;49.40;;;;;;5110883;28;20063;-41
2021/05/13 13:16:04;;;;;;;1.70;1.25;;;22.30;49.50;;;;;;5109406;28;20051;-40
2021/05/13 13:18:29;;;;;;;1.70;1.27;;;22.30;49.40;;;;;;5109949;28;20096;-43
2021/05/13 13:20:57;;;;;;;1.90;1.70;;;22.30;49.50;;;;;;5111276;28;20055;-41